createdAt,value
2023-03-17T00:00:48.843Z,80.91
2023-03-17T00:01:48.817Z,81.63
2023-03-17T00:02:48.871Z,81.74
2023-03-17T00:03:48.757Z,80.15
2023-03-17T00:04:48.720Z,79.83
2023-03-17T00:05:48.683Z,80.83
2023-03-17T00:06:48.757Z,80.98
2023-03-17T00:07:48.626Z,80.04
2023-03-17T00:08:48.587Z,80.42
2023-03-17T00:09:48.556Z,79.58
2023-03-17T00:10:48.525Z,80.56
2023-03-17T00:11:48.498Z,80.46
2023-03-17T00:12:48.461Z,80.39
2023-03-17T00:13:48.431Z,80.70
2023-03-17T00:14:48.450Z,81.01
2023-03-17T00:15:48.418Z,80.35
2023-03-17T00:16:48.356Z,79.69
2023-03-17T00:17:48.303Z,78.86
2023-03-17T00:18:48.284Z,78.86
2023-03-17T00:19:48.241Z,78.44
2023-03-17T00:20:48.207Z,77.68
2023-03-17T00:21:48.180Z,77.68
2023-03-17T00:22:48.167Z,78.13
2023-03-17T00:23:48.113Z,77.37
2023-03-17T00:24:48.079Z,77.78
2023-03-17T00:25:48.058Z,78.34
2023-03-17T00:26:48.018Z,78.44
2023-03-17T00:27:47.987Z,78.23
2023-03-17T00:28:47.952Z,78.48
2023-03-17T00:29:47.922Z,78.55
2023-03-17T00:30:47.895Z,78.69
2023-03-17T00:31:47.860Z,78.13
2023-03-17T00:32:47.878Z,78.69
2023-03-17T00:33:47.796Z,79.76
2023-03-17T00:34:47.764Z,80.80
2023-03-17T00:35:47.757Z,79.87
2023-03-17T00:36:47.700Z,80.18
2023-03-17T00:37:47.669Z,80.70
2023-03-17T00:38:47.675Z,79.97
2023-03-17T00:39:47.607Z,80.39
2023-03-17T00:40:47.577Z,80.08
2023-03-17T00:41:47.543Z,79.97
2023-03-17T00:42:47.515Z,79.24
2023-03-17T00:43:47.481Z,79.03
2023-03-17T00:44:47.446Z,78.93
2023-03-17T00:45:47.415Z,78.52
2023-03-17T00:46:47.478Z,78.83
2023-03-17T00:47:47.352Z,79.03
2023-03-17T00:48:47.320Z,79.97
2023-03-17T00:49:47.288Z,79.97
2023-03-17T00:50:47.259Z,80.29
2023-03-17T00:51:47.226Z,80.29
2023-03-17T00:52:47.190Z,80.11
2023-03-17T00:53:47.162Z,80.18
2023-03-17T00:54:47.532Z,80.29
2023-03-17T00:55:47.099Z,80.63
2023-03-17T00:56:47.067Z,80.53
2023-03-17T00:57:47.035Z,80.94
2023-03-17T00:58:47.002Z,80.43
2023-03-17T00:59:46.974Z,80.08
2023-03-17T01:00:47.020Z,80.84
2023-03-17T01:01:46.953Z,80.43
2023-03-17T01:02:46.894Z,80.63
2023-03-17T01:03:46.848Z,80.53
2023-03-17T01:04:52.828Z,80.63
2023-03-17T01:05:46.783Z,80.43
2023-03-17T01:06:46.747Z,79.80
2023-03-17T01:07:46.719Z,80.74
2023-03-17T01:08:46.682Z,81.05
2023-03-17T01:09:46.654Z,80.80
2023-03-17T01:10:46.644Z,80.53
2023-03-17T01:11:46.592Z,80.60
2023-03-17T01:12:46.557Z,80.32
2023-03-17T01:13:46.536Z,80.32
2023-03-17T01:14:46.495Z,80.26
2023-03-17T01:15:46.467Z,80.74
2023-03-17T01:16:46.471Z,80.32
2023-03-17T01:17:46.408Z,80.32
2023-03-17T01:18:46.405Z,80.11
2023-03-17T01:19:46.337Z,80.11
2023-03-17T01:20:46.303Z,79.38
2023-03-17T01:21:46.274Z,80.22
2023-03-17T01:22:46.242Z,80.32
2023-03-17T01:23:46.209Z,80.05
2023-03-17T01:24:46.176Z,80.84
2023-03-17T01:25:46.146Z,80.63
2023-03-17T01:26:46.132Z,80.32
2023-03-17T01:27:46.092Z,79.69
2023-03-17T01:28:46.053Z,79.49
2023-03-17T01:29:46.027Z,78.97
2023-03-17T01:30:45.987Z,78.97
2023-03-17T01:31:46.031Z,79.38
2023-03-17T01:32:45.947Z,79.38
2023-03-17T01:33:45.894Z,79.63
2023-03-17T01:34:45.866Z,80.22
2023-03-17T01:35:46.021Z,80.01
2023-03-17T01:36:45.798Z,80.15
2023-03-17T01:37:45.770Z,80.50
2023-03-17T01:38:45.737Z,80.71
2023-03-17T01:39:45.718Z,80.57
2023-03-17T01:40:45.667Z,80.91
2023-03-17T01:41:45.664Z,80.71
2023-03-17T01:42:45.629Z,80.60
2023-03-17T01:43:45.577Z,80.15
2023-03-17T01:44:45.545Z,80.67
2023-03-17T01:45:45.586Z,80.77
2023-03-17T01:46:45.487Z,80.01
2023-03-17T01:47:45.450Z,79.49
2023-03-17T01:48:45.421Z,78.93
2023-03-17T01:49:45.387Z,78.00
2023-03-17T01:50:45.354Z,78.00
2023-03-17T01:51:45.322Z,78.45
2023-03-17T01:52:45.288Z,78.97
2023-03-17T01:53:45.267Z,79.21
2023-03-17T01:54:45.241Z,79.21
2023-03-17T01:55:45.195Z,79.32
2023-03-17T01:56:45.161Z,79.32
2023-03-17T01:57:45.131Z,79.00
2023-03-17T01:58:45.121Z,78.45
2023-03-17T01:59:45.064Z,77.72
2023-03-17T02:00:45.063Z,77.40
2023-03-17T02:01:45.002Z,76.95
2023-03-17T02:02:44.969Z,76.85
2023-03-17T02:03:44.938Z,76.33
2023-03-17T02:04:44.906Z,76.85
2023-03-17T02:05:44.875Z,76.95
2023-03-17T02:06:57.572Z,76.85
2023-03-17T02:07:44.820Z,77.06
2023-03-17T02:08:44.775Z,77.40
2023-03-17T02:09:44.776Z,77.20
2023-03-17T02:10:44.721Z,77.51
2023-03-17T02:11:44.682Z,77.51
2023-03-17T02:12:44.648Z,78.03
2023-03-17T02:13:44.649Z,78.38
2023-03-17T02:14:44.606Z,78.80
2023-03-17T02:15:44.554Z,78.69
2023-03-17T02:16:44.535Z,78.49
2023-03-17T02:17:44.490Z,79.04
2023-03-17T02:18:44.456Z,78.77
2023-03-17T02:19:44.428Z,78.73
2023-03-17T02:20:44.393Z,79.14
2023-03-17T02:21:44.361Z,79.77
2023-03-17T02:22:44.331Z,79.87
2023-03-17T02:23:44.298Z,80.95
2023-03-17T02:24:44.264Z,81.02
2023-03-17T02:25:44.232Z,80.40
2023-03-17T02:26:44.202Z,81.65
2023-03-17T02:27:44.183Z,80.60
2023-03-17T02:28:44.137Z,80.08
2023-03-17T02:29:44.103Z,79.42
2023-03-17T02:30:44.128Z,80.15
2023-03-17T02:31:44.043Z,79.00
2023-03-17T02:32:44.100Z,78.80
2023-03-17T02:33:43.979Z,78.38
2023-03-17T02:34:43.949Z,78.07
2023-03-17T02:35:43.936Z,77.83
2023-03-17T02:36:43.951Z,76.64
2023-03-17T02:37:43.855Z,76.75
2023-03-17T02:38:43.829Z,77.27
2023-03-17T02:39:43.790Z,77.51
2023-03-17T02:40:43.754Z,78.45
2023-03-17T02:41:43.736Z,78.66
2023-03-17T02:42:43.693Z,77.83
2023-03-17T02:43:43.667Z,77.69
2023-03-17T02:44:43.634Z,77.61
2023-03-17T02:45:43.639Z,78.03
2023-03-17T02:46:43.593Z,77.37
2023-03-17T02:47:43.537Z,77.48
2023-03-17T02:48:43.502Z,77.37
2023-03-17T02:49:43.474Z,77.37
2023-03-17T02:50:43.436Z,77.48
2023-03-17T02:51:43.410Z,77.61
2023-03-17T02:52:43.375Z,78.62
2023-03-17T02:53:43.343Z,78.41
2023-03-17T02:54:43.311Z,77.89
2023-03-17T02:55:43.283Z,78.00
2023-03-17T02:56:43.246Z,77.27
2023-03-17T02:57:43.216Z,77.27
2023-03-17T02:58:43.184Z,77.27
2023-03-17T02:59:43.152Z,77.48
2023-03-17T03:00:43.120Z,77.48
2023-03-17T03:01:43.123Z,78.03
2023-03-17T03:02:43.178Z,78.03
2023-03-17T03:03:43.030Z,78.34
2023-03-17T03:04:42.992Z,78.86
2023-03-17T03:05:42.968Z,79.17
2023-03-17T03:06:42.940Z,79.21
2023-03-17T03:07:42.898Z,79.21
2023-03-17T03:08:42.871Z,79.32
2023-03-17T03:09:42.839Z,80.26
2023-03-17T03:10:42.804Z,79.42
2023-03-17T03:11:42.786Z,80.19
2023-03-17T03:12:42.750Z,80.29
2023-03-17T03:13:42.712Z,80.19
2023-03-17T03:14:42.677Z,80.26
2023-03-17T03:15:42.757Z,80.26
2023-03-17T03:16:42.616Z,79.94
2023-03-17T03:17:42.582Z,80.40
2023-03-17T03:18:42.569Z,80.29
2023-03-17T03:19:42.534Z,80.81
2023-03-17T03:20:42.487Z,81.12
2023-03-17T03:21:42.456Z,81.16
2023-03-17T03:22:42.423Z,81.79
2023-03-17T03:23:42.409Z,81.99
2023-03-17T03:24:42.359Z,81.99
2023-03-17T03:25:42.325Z,81.99
2023-03-17T03:26:42.295Z,81.89
2023-03-17T03:27:42.263Z,82.20
2023-03-17T03:28:42.232Z,82.31
2023-03-17T03:29:42.200Z,82.31
2023-03-17T03:30:42.196Z,82.62
2023-03-17T03:31:42.135Z,82.68
2023-03-17T03:32:42.126Z,82.62
2023-03-17T03:33:42.071Z,82.27
2023-03-17T03:34:42.162Z,82.27
2023-03-17T03:35:42.046Z,82.37
2023-03-17T03:36:41.982Z,82.62
2023-03-17T03:37:41.943Z,82.20
2023-03-17T03:38:41.910Z,83.14
2023-03-17T03:39:41.880Z,83.04
2023-03-17T03:40:41.855Z,82.93
2023-03-17T03:41:41.816Z,82.82
2023-03-17T03:42:41.785Z,82.93
2023-03-17T03:43:41.753Z,84.28
2023-03-17T03:44:41.722Z,84.50
2023-03-17T03:45:41.686Z,83.25
2023-03-17T03:46:41.725Z,83.10
2023-03-17T03:47:41.623Z,82.93
2023-03-17T03:48:41.590Z,83.00
2023-03-17T03:49:41.558Z,82.27
2023-03-17T03:50:41.555Z,81.09
2023-03-17T03:51:41.505Z,81.81
2023-03-17T03:52:41.468Z,82.23
2023-03-17T03:53:41.434Z,81.40
2023-03-17T03:54:41.396Z,81.81
2023-03-17T03:55:41.368Z,82.27
2023-03-17T03:56:41.333Z,83.20
2023-03-17T03:57:41.300Z,82.89
2023-03-17T03:58:41.271Z,82.79
2023-03-17T03:59:41.242Z,82.48
2023-03-17T04:00:41.205Z,83.04
2023-03-17T04:01:41.173Z,84.35
2023-03-17T04:02:41.180Z,84.28
2023-03-17T04:03:41.110Z,84.39
2023-03-17T04:04:41.168Z,84.28
2023-03-17T04:05:41.058Z,84.50
2023-03-17T04:06:41.039Z,84.50
2023-03-17T04:07:40.983Z,84.50
2023-03-17T04:08:40.951Z,84.28
2023-03-17T04:09:40.933Z,84.50
2023-03-17T04:10:40.888Z,84.50
2023-03-17T04:11:40.873Z,84.18
2023-03-17T04:12:40.830Z,83.35
2023-03-17T04:13:40.798Z,83.35
2023-03-17T04:14:40.761Z,83.14
2023-03-17T04:15:40.729Z,83.28
2023-03-17T04:16:43.266Z,83.80
2023-03-17T04:17:40.666Z,84.33
2023-03-17T04:18:40.697Z,84.67
2023-03-17T04:19:40.606Z,84.84
2023-03-17T04:20:40.570Z,84.22
2023-03-17T04:21:40.533Z,84.22
2023-03-17T04:22:40.525Z,84.33
2023-03-17T04:23:40.480Z,84.12
2023-03-17T04:24:40.442Z,84.64
2023-03-17T04:25:40.412Z,84.33
2023-03-17T04:26:40.376Z,84.84
2023-03-17T04:27:40.344Z,85.10
2023-03-17T04:28:40.311Z,85.68
2023-03-17T04:29:40.280Z,85.68
2023-03-17T04:30:40.249Z,85.05
2023-03-17T04:31:40.249Z,84.43
2023-03-17T04:32:40.253Z,84.43
2023-03-17T04:33:40.149Z,84.22
2023-03-17T04:34:40.120Z,84.95
2023-03-17T04:35:40.113Z,84.84
2023-03-17T04:36:40.054Z,84.84
2023-03-17T04:37:40.021Z,84.47
2023-03-17T04:38:40.014Z,85.20
2023-03-17T04:39:39.958Z,85.16
2023-03-17T04:40:39.926Z,85.82
2023-03-17T04:41:39.892Z,86.03
2023-03-17T04:42:39.863Z,85.47
2023-03-17T04:43:39.828Z,85.05
2023-03-17T04:44:39.797Z,85.58
2023-03-17T04:45:39.809Z,84.95
2023-03-17T04:46:39.742Z,85.41
2023-03-17T04:47:39.701Z,86.55
2023-03-17T04:48:39.668Z,86.87
2023-03-17T04:49:39.647Z,85.93
2023-03-17T04:50:39.603Z,86.13
2023-03-17T04:51:39.572Z,86.03
2023-03-17T04:52:39.540Z,85.82
2023-03-17T04:53:39.514Z,86.35
2023-03-17T04:54:39.495Z,86.35
2023-03-17T04:55:39.442Z,86.13
2023-03-17T04:56:39.414Z,85.93
2023-03-17T04:57:39.411Z,86.24
2023-03-17T04:58:39.348Z,85.41
2023-03-17T04:59:39.315Z,84.88
2023-03-17T05:00:39.283Z,85.55
2023-03-17T05:01:39.391Z,85.86
2023-03-17T05:02:39.345Z,85.36
2023-03-17T05:03:39.191Z,85.47
2023-03-17T05:04:39.153Z,84.95
2023-03-17T05:05:39.123Z,84.84
2023-03-17T05:06:39.097Z,85.58
2023-03-17T05:07:39.065Z,85.93
2023-03-17T05:08:39.026Z,86.66
2023-03-17T05:09:38.997Z,86.55
2023-03-17T05:10:38.981Z,86.66
2023-03-17T05:11:38.930Z,86.76
2023-03-17T05:12:38.895Z,86.69
2023-03-17T05:13:38.863Z,85.82
2023-03-17T05:14:38.833Z,85.93
2023-03-17T05:15:38.797Z,86.97
2023-03-17T05:16:38.926Z,86.80
2023-03-17T05:17:38.737Z,86.35
2023-03-17T05:18:38.706Z,86.24
2023-03-17T05:19:38.669Z,85.61
2023-03-17T05:20:38.638Z,85.65
2023-03-17T05:21:38.619Z,85.86
2023-03-17T05:22:38.577Z,85.86
2023-03-17T05:23:38.539Z,85.86
2023-03-17T05:24:38.509Z,86.45
2023-03-17T05:25:38.475Z,86.59
2023-03-17T05:26:38.462Z,86.69
2023-03-17T05:27:38.411Z,87.60
2023-03-17T05:28:38.379Z,86.87
2023-03-17T05:29:38.343Z,87.60
2023-03-17T05:30:38.361Z,87.39
2023-03-17T05:31:38.283Z,86.66
2023-03-17T05:32:38.272Z,87.07
2023-03-17T05:33:38.222Z,86.76
2023-03-17T05:34:38.183Z,87.39
2023-03-17T05:35:38.177Z,87.81
2023-03-17T05:36:38.122Z,88.26
2023-03-17T05:37:38.085Z,89.10
2023-03-17T05:38:38.057Z,88.68
2023-03-17T05:39:38.035Z,88.16
2023-03-17T05:40:37.988Z,87.43
2023-03-17T05:41:37.959Z,87.53
2023-03-17T05:42:37.957Z,87.32
2023-03-17T05:43:37.892Z,87.70
2023-03-17T05:44:37.863Z,87.91
2023-03-17T05:45:37.828Z,87.81
2023-03-17T05:46:37.798Z,87.95
2023-03-17T05:47:37.768Z,87.84
2023-03-17T05:48:37.732Z,88.32
2023-03-17T05:49:37.697Z,88.32
2023-03-17T05:50:37.668Z,88.22
2023-03-17T05:51:37.634Z,88.22
2023-03-17T05:52:37.604Z,88.22
2023-03-17T05:53:37.570Z,88.22
2023-03-17T05:54:37.561Z,88.22
2023-03-17T05:55:37.506Z,88.22
2023-03-17T05:56:37.479Z,87.91
2023-03-17T05:57:37.454Z,87.60
2023-03-17T05:58:37.429Z,87.70
2023-03-17T05:59:37.383Z,87.70
2023-03-17T06:00:37.347Z,88.43
2023-03-17T06:01:37.313Z,88.32
2023-03-17T06:02:37.365Z,88.22
2023-03-17T06:03:37.284Z,88.22
2023-03-17T06:04:37.219Z,88.53
2023-03-17T06:05:37.186Z,88.53
2023-03-17T06:06:37.156Z,88.22
2023-03-17T06:07:50.867Z,88.43
2023-03-17T06:08:37.091Z,88.85
2023-03-17T06:09:37.057Z,87.76
2023-03-17T06:10:37.026Z,86.20
2023-03-17T06:11:37.020Z,86.30
2023-03-17T06:12:36.962Z,85.99
2023-03-17T06:13:36.928Z,86.93
2023-03-17T06:14:36.917Z,86.58
2023-03-17T06:15:36.907Z,86.79
2023-03-17T06:16:36.866Z,85.74
2023-03-17T06:17:36.799Z,86.58
2023-03-17T06:18:36.778Z,86.89
2023-03-17T06:19:36.737Z,87.06
2023-03-17T06:20:36.802Z,87.37
2023-03-17T06:21:36.672Z,86.96
2023-03-17T06:22:36.641Z,87.16
2023-03-17T06:23:36.631Z,86.54
2023-03-17T06:24:36.577Z,86.65
2023-03-17T06:25:36.549Z,86.02
2023-03-17T06:26:36.513Z,86.02
2023-03-17T06:27:36.480Z,85.71
2023-03-17T06:28:36.448Z,85.29
2023-03-17T06:29:36.422Z,85.35
2023-03-17T06:30:38.178Z,85.04
2023-03-17T06:31:36.407Z,85.56
2023-03-17T06:32:36.340Z,85.21
2023-03-17T06:33:36.286Z,84.80
2023-03-17T06:34:36.256Z,85.21
2023-03-17T06:35:36.279Z,85.21
2023-03-17T06:36:38.550Z,85.28
2023-03-17T06:37:36.158Z,85.49
2023-03-17T06:38:36.127Z,84.23
2023-03-17T06:39:36.095Z,84.34
2023-03-17T06:40:36.069Z,84.34
2023-03-17T06:41:36.034Z,83.99
2023-03-17T06:42:36.001Z,84.20
2023-03-17T06:43:35.969Z,84.20
2023-03-17T06:44:35.937Z,83.68
2023-03-17T06:45:35.912Z,83.53
2023-03-17T06:46:35.973Z,83.33
2023-03-17T06:47:35.841Z,83.08
2023-03-17T06:48:35.840Z,83.08
2023-03-17T06:49:35.779Z,83.08
2023-03-17T06:50:35.750Z,83.29
2023-03-17T06:51:35.717Z,82.73
2023-03-17T06:52:35.684Z,82.84
2023-03-17T06:53:35.652Z,82.42
2023-03-17T06:54:35.622Z,82.53
2023-03-17T06:55:35.592Z,82.32
2023-03-17T06:56:35.559Z,82.18
2023-03-17T06:57:35.527Z,81.87
2023-03-17T06:58:35.499Z,81.76
2023-03-17T06:59:35.463Z,81.97
2023-03-17T07:00:35.440Z,82.24
2023-03-17T07:01:35.412Z,81.62
2023-03-17T07:02:35.389Z,80.27
2023-03-17T07:03:36.251Z,81.30
2023-03-17T07:04:35.352Z,79.92
2023-03-17T07:05:35.322Z,79.92
2023-03-17T07:06:35.246Z,79.41
2023-03-17T07:07:35.215Z,80.44
2023-03-17T07:08:35.220Z,79.68
2023-03-17T07:09:35.154Z,79.27
2023-03-17T07:10:35.128Z,79.99
2023-03-17T07:11:35.090Z,79.47
2023-03-17T07:12:35.079Z,77.92
2023-03-17T07:13:35.026Z,77.81
2023-03-17T07:14:35.017Z,77.09
2023-03-17T07:15:35.156Z,76.26
2023-03-17T07:16:34.982Z,77.26
2023-03-17T07:17:34.985Z,77.26
2023-03-17T07:18:34.911Z,78.19
2023-03-17T07:19:34.875Z,77.67
2023-03-17T07:20:34.811Z,77.64
2023-03-17T07:21:34.819Z,77.43
2023-03-17T07:22:34.799Z,77.43
2023-03-17T07:23:34.729Z,77.64
2023-03-17T07:24:34.705Z,77.22
2023-03-17T07:25:34.664Z,77.19
2023-03-17T07:26:34.634Z,77.09
2023-03-17T07:27:34.602Z,76.98
2023-03-17T07:28:34.570Z,76.05
2023-03-17T07:29:34.578Z,76.57
2023-03-17T07:30:34.508Z,75.95
2023-03-17T07:31:34.536Z,75.53
2023-03-17T07:32:34.469Z,76.05
2023-03-17T07:33:34.416Z,75.63
2023-03-17T07:34:34.413Z,75.95
2023-03-17T07:35:34.887Z,76.57
2023-03-17T07:36:34.321Z,75.63
2023-03-17T07:37:34.300Z,75.95
2023-03-17T07:38:34.262Z,76.40
2023-03-17T07:39:34.232Z,76.91
2023-03-17T07:40:35.415Z,76.19
2023-03-17T07:41:34.172Z,76.61
2023-03-17T07:42:34.136Z,77.29
2023-03-17T07:43:34.110Z,76.88
2023-03-17T07:44:34.104Z,76.36
2023-03-17T07:45:34.386Z,76.05
2023-03-17T07:46:34.018Z,76.22
2023-03-17T07:47:33.987Z,75.81
2023-03-17T07:48:33.982Z,74.95
2023-03-17T07:49:41.173Z,75.15
2023-03-17T07:50:33.914Z,74.43
2023-03-17T07:51:33.885Z,73.81
2023-03-17T07:52:33.836Z,72.81
2023-03-17T07:53:33.829Z,73.64
2023-03-17T07:54:33.776Z,73.74
2023-03-17T07:55:33.808Z,74.02
2023-03-17T07:56:33.729Z,74.43
2023-03-17T07:57:33.703Z,73.88
2023-03-17T07:58:33.651Z,74.26
2023-03-17T07:59:33.669Z,73.67
2023-03-17T08:00:34.115Z,72.22
2023-03-17T08:01:33.564Z,72.22
2023-03-17T08:02:33.576Z,74.19
2023-03-17T08:03:33.558Z,70.57
2023-03-17T08:04:33.471Z,71.81
2023-03-17T08:05:33.441Z,72.50
2023-03-17T08:06:33.428Z,71.37
2023-03-17T08:07:33.436Z,70.23
2023-03-17T08:08:33.352Z,70.03
2023-03-17T08:09:33.345Z,68.96
2023-03-17T08:10:33.838Z,69.27
2023-03-17T08:11:33.264Z,68.54
2023-03-17T08:12:33.232Z,66.89
2023-03-17T08:13:33.204Z,67.51
2023-03-17T08:14:33.183Z,67.10
2023-03-17T08:15:33.146Z,67.00
2023-03-17T08:16:33.187Z,67.10
2023-03-17T08:17:33.084Z,67.61
2023-03-17T08:18:33.091Z,67.72
2023-03-17T08:19:33.023Z,68.21
2023-03-17T08:20:33.366Z,68.00
2023-03-17T08:21:32.987Z,69.03
2023-03-17T08:22:32.973Z,68.90
2023-03-17T08:23:32.906Z,68.17
2023-03-17T08:24:32.922Z,67.73
2023-03-17T08:25:32.844Z,67.52
2023-03-17T08:26:32.815Z,67.21
2023-03-17T08:27:33.995Z,67.39
2023-03-17T08:28:32.755Z,66.15
2023-03-17T08:29:32.766Z,66.87
2023-03-17T08:30:33.890Z,66.67
2023-03-17T08:31:32.763Z,65.81
2023-03-17T08:32:32.707Z,65.74
2023-03-17T08:33:32.622Z,65.50
2023-03-17T08:34:32.578Z,65.71
2023-03-17T08:35:32.974Z,66.12
2023-03-17T08:36:32.517Z,65.37
2023-03-17T08:37:32.492Z,65.58
2023-03-17T08:38:32.482Z,64.96
2023-03-17T08:39:32.434Z,65.58
2023-03-17T08:40:32.713Z,65.99
2023-03-17T08:41:32.375Z,65.78
2023-03-17T08:42:32.350Z,65.26
2023-03-17T08:43:32.327Z,65.68
2023-03-17T08:44:32.285Z,64.96
2023-03-17T08:45:32.652Z,64.86
2023-03-17T08:46:32.311Z,63.82
2023-03-17T08:47:32.200Z,64.75
2023-03-17T08:48:32.170Z,64.14
2023-03-17T08:49:32.141Z,64.86
2023-03-17T08:50:32.412Z,65.68
2023-03-17T08:51:32.112Z,65.37
2023-03-17T08:52:32.056Z,64.62
2023-03-17T08:53:32.024Z,65.34
2023-03-17T08:54:32.040Z,65.65
2023-03-17T08:55:31.967Z,65.55
2023-03-17T08:56:31.938Z,65.52
2023-03-17T08:57:31.910Z,65.72
2023-03-17T08:58:31.878Z,64.56
2023-03-17T08:59:31.848Z,64.36
2023-03-17T09:00:32.290Z,64.04
2023-03-17T09:01:31.815Z,64.36
2023-03-17T09:02:31.848Z,63.50
2023-03-17T09:03:31.733Z,62.78
2023-03-17T09:04:31.701Z,63.71
2023-03-17T09:05:32.119Z,62.16
2023-03-17T09:06:31.652Z,59.91
2023-03-17T09:07:31.692Z,59.50
2023-03-17T09:08:31.585Z,61.65
2023-03-17T09:09:31.565Z,63.06
2023-03-17T09:10:31.794Z,61.11
2023-03-17T09:11:31.535Z,60.29
2023-03-17T09:12:33.191Z,60.29
2023-03-17T09:13:31.445Z,57.72
2023-03-17T09:14:40.118Z,55.77
2023-03-17T09:15:31.639Z,57.00
2023-03-17T09:16:31.398Z,57.21
2023-03-17T09:17:31.331Z,57.51
2023-03-17T09:18:31.345Z,57.62
2023-03-17T09:19:31.273Z,58.11
2023-03-17T09:20:31.393Z,57.62
2023-03-17T09:21:31.226Z,57.18
2023-03-17T09:22:31.182Z,57.18
2023-03-17T09:23:31.174Z,56.67
2023-03-17T09:24:31.133Z,56.67
2023-03-17T09:25:31.097Z,57.56
2023-03-17T09:26:31.086Z,56.74
2023-03-17T09:27:31.043Z,57.18
2023-03-17T09:28:31.013Z,57.15
2023-03-17T09:29:31.001Z,55.90
2023-03-17T09:30:31.211Z,57.03
2023-03-17T09:31:30.977Z,55.08
2023-03-17T09:32:30.938Z,56.82
2023-03-17T09:33:30.872Z,56.18
2023-03-17T09:34:30.841Z,55.98
2023-03-17T09:35:30.880Z,54.44
2023-03-17T09:36:30.782Z,54.64
2023-03-17T09:37:30.756Z,54.10
2023-03-17T09:38:30.726Z,54.72
2023-03-17T09:39:30.713Z,55.92
2023-03-17T09:40:31.179Z,53.67
2023-03-17T09:41:30.645Z,52.34
2023-03-17T09:42:30.635Z,53.77
2023-03-17T09:43:30.588Z,52.21
2023-03-17T09:44:30.559Z,53.54
2023-03-17T09:45:30.537Z,53.52
2023-03-17T09:46:30.566Z,52.67
2023-03-17T09:47:30.477Z,51.75
2023-03-17T09:48:30.447Z,50.52
2023-03-17T09:49:30.421Z,49.89
2023-03-17T09:50:30.659Z,51.50
2023-03-17T09:51:30.367Z,52.42
2023-03-17T09:52:30.346Z,50.15
2023-03-17T09:53:30.311Z,49.54
2023-03-17T09:54:30.282Z,50.07
2023-03-17T09:55:30.725Z,49.84
2023-03-17T09:56:30.229Z,50.63
2023-03-17T09:57:30.204Z,50.07
2023-03-17T09:58:30.203Z,50.30
2023-03-17T09:59:30.173Z,51.62
2023-03-17T10:00:30.128Z,52.42
2023-03-17T10:01:30.170Z,50.15
2023-03-17T10:02:30.091Z,51.96
2023-03-17T10:03:30.112Z,49.51
2023-03-17T10:04:30.078Z,50.12
2023-03-17T10:05:30.509Z,49.33
2023-03-17T10:06:29.965Z,50.43
2023-03-17T10:07:29.932Z,50.12
2023-03-17T10:08:31.965Z,50.23
2023-03-17T10:09:29.911Z,49.46
2023-03-17T10:10:30.159Z,49.77
2023-03-17T10:11:29.826Z,50.79
2023-03-17T10:12:29.805Z,51.51
2023-03-17T10:13:29.783Z,50.36
2023-03-17T10:14:29.763Z,49.95
2023-03-17T10:15:30.143Z,49.05
2023-03-17T10:16:29.769Z,49.49
2023-03-17T10:17:29.664Z,51.40
2023-03-17T10:18:29.637Z,50.79
2023-03-17T10:19:29.617Z,49.16
2023-03-17T10:20:29.584Z,49.51
2023-03-17T10:21:29.562Z,50.84
2023-03-17T10:22:29.533Z,51.17
2023-03-17T10:23:29.509Z,50.94
2023-03-17T10:24:29.484Z,51.45
2023-03-17T10:25:29.910Z,51.84
2023-03-17T10:26:29.444Z,49.90
2023-03-17T10:27:29.408Z,50.31
2023-03-17T10:28:29.373Z,50.79
2023-03-17T10:29:29.348Z,50.10
2023-03-17T10:30:29.856Z,51.12
2023-03-17T10:31:29.400Z,50.10
2023-03-17T10:32:29.347Z,50.41
2023-03-17T10:33:29.243Z,50.31
2023-03-17T10:34:29.241Z,51.61
2023-03-17T10:35:29.852Z,50.38
2023-03-17T10:36:29.166Z,50.67
2023-03-17T10:37:29.140Z,51.28
2023-03-17T10:38:29.118Z,51.79
2023-03-17T10:39:31.474Z,50.26
2023-03-17T10:40:29.410Z,49.54
2023-03-17T10:41:29.032Z,49.54
2023-03-17T10:42:29.014Z,50.48
2023-03-17T10:43:28.979Z,50.59
2023-03-17T10:44:28.955Z,50.26
2023-03-17T10:45:28.930Z,51.17
2023-03-17T10:46:28.980Z,51.58
2023-03-17T10:47:28.884Z,49.54
2023-03-17T10:48:28.853Z,49.34
2023-03-17T10:49:28.823Z,48.96
2023-03-17T10:50:28.853Z,50.08
2023-03-17T10:51:28.771Z,50.05
2023-03-17T10:52:28.742Z,50.56
2023-03-17T10:53:28.726Z,51.48
2023-03-17T10:54:28.710Z,51.05
2023-03-17T10:55:28.670Z,48.89
2023-03-17T10:56:28.641Z,48.79
2023-03-17T10:57:28.624Z,49.50
2023-03-17T10:58:28.593Z,48.18
2023-03-17T10:59:28.629Z,48.19
2023-03-17T11:00:28.817Z,49.70
2023-03-17T11:01:28.548Z,46.87
2023-03-17T11:02:28.512Z,48.19
2023-03-17T11:03:28.535Z,48.89
2023-03-17T11:04:28.453Z,47.66
2023-03-17T11:05:28.410Z,48.07
2023-03-17T11:06:28.381Z,47.87
2023-03-17T11:07:28.357Z,47.97
2023-03-17T11:08:28.330Z,48.50
2023-03-17T11:09:28.306Z,47.79
2023-03-17T11:10:28.320Z,47.69
2023-03-17T11:11:28.256Z,46.85
2023-03-17T11:12:28.233Z,47.49
2023-03-17T11:13:28.210Z,47.46
2023-03-17T11:14:28.181Z,47.77
2023-03-17T11:15:28.153Z,47.03
2023-03-17T11:16:28.232Z,47.42
2023-03-17T11:17:28.103Z,46.03
2023-03-17T11:18:28.115Z,47.05
2023-03-17T11:19:28.048Z,45.20
2023-03-17T11:20:28.089Z,47.82
2023-03-17T11:21:27.996Z,45.30
2023-03-17T11:22:27.971Z,46.11
2023-03-17T11:23:27.947Z,46.81
2023-03-17T11:24:27.919Z,45.89
2023-03-17T11:25:27.902Z,45.61
2023-03-17T11:26:27.880Z,45.73
2023-03-17T11:27:27.842Z,45.83
2023-03-17T11:28:27.830Z,45.73
2023-03-17T11:29:27.799Z,45.63
2023-03-17T11:30:27.797Z,46.95
2023-03-17T11:31:27.772Z,46.52
2023-03-17T11:32:27.756Z,46.83
2023-03-17T11:33:27.692Z,45.30
2023-03-17T11:34:27.687Z,45.22
2023-03-17T11:35:27.641Z,45.61
2023-03-17T11:36:27.614Z,45.81
2023-03-17T11:37:27.590Z,46.40
2023-03-17T11:38:27.559Z,45.68
2023-03-17T11:39:27.533Z,46.30
2023-03-17T11:40:27.505Z,46.20
2023-03-17T11:41:27.484Z,45.48
2023-03-17T11:42:27.463Z,45.89
2023-03-17T11:43:27.431Z,47.01
2023-03-17T11:44:27.401Z,46.78
2023-03-17T11:45:27.381Z,46.15
2023-03-17T11:46:27.429Z,47.27
2023-03-17T11:47:27.326Z,45.06
2023-03-17T11:48:27.299Z,45.18
2023-03-17T11:49:27.275Z,46.01
2023-03-17T11:50:27.266Z,46.81
2023-03-17T11:51:27.222Z,46.98
2023-03-17T11:52:27.196Z,47.09
2023-03-17T11:53:27.172Z,45.84
2023-03-17T11:54:27.149Z,45.44
2023-03-17T11:55:27.121Z,45.87
2023-03-17T11:56:27.093Z,45.46
2023-03-17T11:57:27.081Z,47.60
2023-03-17T11:58:27.054Z,45.95
2023-03-17T11:59:27.024Z,45.54
2023-03-17T12:00:26.989Z,45.75
2023-03-17T12:01:26.960Z,45.44
2023-03-17T12:02:26.938Z,45.34
2023-03-17T12:03:26.943Z,45.24
2023-03-17T12:04:26.924Z,46.25
2023-03-17T12:05:26.865Z,45.52
2023-03-17T12:06:26.851Z,45.44
2023-03-17T12:07:26.805Z,45.93
2023-03-17T12:08:26.795Z,45.21
2023-03-17T12:09:26.752Z,44.71
2023-03-17T12:10:26.730Z,45.54
2023-03-17T12:11:26.701Z,47.75
2023-03-17T12:12:26.675Z,46.92
2023-03-17T12:13:26.659Z,45.20
2023-03-17T12:14:26.625Z,44.10
2023-03-17T12:15:26.621Z,45.01
2023-03-17T12:16:26.572Z,44.89
2023-03-17T12:17:27.611Z,44.48
2023-03-17T12:18:26.519Z,44.08
2023-03-17T12:19:26.494Z,44.67
2023-03-17T12:20:26.465Z,45.17
2023-03-17T12:21:26.445Z,44.74
2023-03-17T12:22:26.440Z,43.32
2023-03-17T12:23:26.392Z,43.55
2023-03-17T12:24:26.365Z,44.46
2023-03-17T12:25:26.338Z,44.67
2023-03-17T12:26:26.314Z,43.65
2023-03-17T12:27:26.287Z,45.07
2023-03-17T12:28:26.262Z,44.46
2023-03-17T12:29:26.240Z,44.38
2023-03-17T12:30:26.210Z,44.97
2023-03-17T12:31:26.266Z,44.67
2023-03-17T12:32:26.296Z,44.26
2023-03-17T12:33:26.131Z,44.65
2023-03-17T12:34:26.109Z,44.74
2023-03-17T12:35:26.094Z,44.13
2023-03-17T12:36:26.057Z,44.77
2023-03-17T12:37:26.034Z,44.67
2023-03-17T12:38:26.052Z,44.97
2023-03-17T12:39:25.981Z,45.28
2023-03-17T12:40:26.372Z,43.02
2023-03-17T12:41:25.929Z,43.32
2023-03-17T12:42:25.911Z,44.13
2023-03-17T12:43:25.877Z,43.20
2023-03-17T12:44:25.853Z,44.73
2023-03-17T12:45:25.826Z,43.02
2023-03-17T12:46:25.842Z,43.63
2023-03-17T12:47:25.808Z,44.13
2023-03-17T12:48:25.751Z,42.69
2023-03-17T12:49:25.725Z,44.73
2023-03-17T12:50:25.699Z,42.90
2023-03-17T12:51:25.674Z,43.10
2023-03-17T12:52:25.649Z,43.00